This is the latest recevied weather packets stored in our database for station/object SQ6ELQ-11. If no packets are shown the sender has not sent any weather packets the latest 10 day(s).
| Time | Temp. | Humidity | Pressure | Rain* | Wind** | Luminosity | Snow |
|---|---|---|---|---|---|---|---|
| 1778151756 | 10.56° C | 67% | 1012 hPa | 0 mm | - | - | - |
| 1778150670 | 10.56° C | 68% | 1011.8 hPa | 0 mm | - | - | - |
| 1778149573 | 11.11° C | 64% | 1011.5 hPa | 0 mm | - | - | - |
| 1778148526 | 11.11° C | 64% | 1011.6 hPa | 0 mm | - | - | - |
| 1778147477 | 11.67° C | 60% | 1011.3 hPa | 0 mm | - | - | - |
| 1778146356 | 13.33° C | 60% | 1011 hPa | 0 mm | - | - | - |
| 1778145302 | 13.33° C | 63% | 1010.6 hPa | 0 mm | - | - | - |
| 1778144261 | 12.22° C | 62% | 1010.7 hPa | 0 mm | - | - | - |
| 1778143191 | 12.78° C | 64% | 1010.5 hPa | 0 mm | - | - | - |
| 1778142229 | 11.67° C | 67% | 1010.4 hPa | 0 mm | - | - | - |
| 1778141163 | 10.56° C | 71% | 1010.4 hPa | 0 mm | - | - | - |
| 1778140046 | 9.44° C | 75% | 1010.3 hPa | 0 mm | - | - | - |
| 1778139026 | 8.89° C | 76% | 1010.3 hPa | 0 mm | - | - | - |
| 1778138003 | 10° C | 77% | 1009.9 hPa | 0 mm | - | - | - |
| 1778136867 | 9.44° C | 78% | 1009.8 hPa | 0 mm | - | - | - |
| 1778135698 | 9.44° C | 78% | 1009.7 hPa | 0 mm | - | - | - |
| 1778134649 | 9.44° C | 78% | 1009.7 hPa | 0 mm | - | - | - |
| 1778133576 | 10.56° C | 77% | 1009.4 hPa | 0 mm | - | - | - |
| 1778132512 | 11.11° C | 78% | 1009.2 hPa | 0 mm | - | - | - |
| 1778131467 | 11.11° C | 77% | 1008.9 hPa | 0 mm | - | - | - |
| 1778130479 | 11.11° C | 77% | 1008.9 hPa | 0 mm | - | - | - |
| 1778129310 | 10.56° C | 77% | 1008.7 hPa | 0 mm | - | - | - |
| 1778128293 | 10.56° C | 78% | 1008.6 hPa | 0 mm | - | - | - |
| 1778127224 | 10.56° C | 78% | 1008.4 hPa | 0 mm | - | - | - |
| 1778126184 | 10° C | 78% | 1008.3 hPa | 0 mm | - | - | - |
* Rain latest hour (hover to see other rain measurements)
** Current wind speed in m/s (hover to see current wind gust speed)